createdAt,value
2022-10-17T00:01:11.800Z,13.50
2022-10-17T00:02:44.490Z,13.50
2022-10-17T00:04:17.172Z,13.40
2022-10-17T00:05:49.892Z,13.40
2022-10-17T00:07:22.616Z,13.40
2022-10-17T00:08:55.336Z,13.40
2022-10-17T00:10:28.121Z,13.40
2022-10-17T00:12:02.563Z,13.30
2022-10-17T00:13:36.919Z,13.30
2022-10-17T00:15:10.094Z,13.30
2022-10-17T00:16:42.899Z,13.30
2022-10-17T00:18:15.647Z,13.30
2022-10-17T00:19:47.355Z,13.30
2022-10-17T00:21:20.449Z,13.30
2022-10-17T00:22:53.161Z,13.30
2022-10-17T00:24:25.898Z,13.30
2022-10-17T00:25:59.315Z,13.30
2022-10-17T00:27:32.080Z,13.40
2022-10-17T00:29:06.180Z,13.40
2022-10-17T00:30:39.271Z,13.40
2022-10-17T00:32:11.942Z,13.40
2022-10-17T00:33:44.121Z,13.40
2022-10-17T00:35:16.897Z,13.40
2022-10-17T00:36:48.589Z,13.40
2022-10-17T00:38:21.277Z,13.40
2022-10-17T00:39:54.665Z,13.50
2022-10-17T00:41:28.577Z,13.40
2022-10-17T00:43:01.548Z,13.40
2022-10-17T00:44:53.141Z,13.40
2022-10-17T00:46:28.783Z,13.40
2022-10-17T00:48:04.238Z,13.40
2022-10-17T00:49:37.542Z,13.30
2022-10-17T00:51:10.259Z,13.30
2022-10-17T00:52:42.546Z,13.30
2022-10-17T00:54:17.316Z,13.30
2022-10-17T00:55:51.590Z,13.30
2022-10-17T00:57:23.586Z,13.20
2022-10-17T00:58:56.618Z,13.20
2022-10-17T01:00:28.467Z,13.20
2022-10-17T01:02:04.460Z,13.20
2022-10-17T01:03:37.214Z,13.20
2022-10-17T01:05:10.498Z,13.20
2022-10-17T01:06:43.293Z,13.20
2022-10-17T01:08:16.272Z,13.20
2022-10-17T01:09:48.495Z,13.20
2022-10-17T01:11:30.113Z,13.20
2022-10-17T01:13:09.565Z,13.20
2022-10-17T01:14:43.856Z,13.20
2022-10-17T01:16:19.917Z,13.20
2022-10-17T01:17:58.655Z,13.20
2022-10-17T01:19:37.278Z,13.10
2022-10-17T01:21:17.532Z,13.10
2022-10-17T01:22:54.237Z,13.10
2022-10-17T01:24:37.079Z,13.20
2022-10-17T01:26:15.052Z,13.10
2022-10-17T01:27:53.492Z,13.10
2022-10-17T01:29:40.180Z,13.20
2022-10-17T01:31:15.252Z,13.20
2022-10-17T01:32:49.756Z,13.10
2022-10-17T01:34:23.559Z,13.10
2022-10-17T01:36:03.146Z,13.10
2022-10-17T01:37:42.550Z,13.10
2022-10-17T01:39:17.291Z,13.10
2022-10-17T01:40:51.399Z,13.10
2022-10-17T01:42:26.564Z,13.10
2022-10-17T01:44:00.766Z,13.10
2022-10-17T01:45:35.355Z,13.10
2022-10-17T01:47:11.500Z,13.00
2022-10-17T01:48:46.012Z,13.00
2022-10-17T01:50:20.774Z,13.00
2022-10-17T01:51:55.341Z,13.00
2022-10-17T01:53:29.958Z,13.00
2022-10-17T01:55:05.772Z,13.00
2022-10-17T01:56:38.981Z,12.90
2022-10-17T01:58:13.548Z,13.00
2022-10-17T01:59:48.724Z,12.90
2022-10-17T02:01:22.079Z,12.90
2022-10-17T02:03:10.312Z,12.90
2022-10-17T02:04:43.641Z,12.90
2022-10-17T02:06:16.411Z,12.90
2022-10-17T02:07:49.145Z,12.90
2022-10-17T02:09:22.287Z,12.90
2022-10-17T02:10:57.308Z,12.90
2022-10-17T02:12:38.774Z,12.90
2022-10-17T02:14:19.107Z,12.90
2022-10-17T02:16:07.959Z,12.90
2022-10-17T02:17:45.864Z,12.90
2022-10-17T02:19:36.715Z,12.80
2022-10-17T02:21:15.373Z,12.80
2022-10-17T02:22:50.502Z,12.80
2022-10-17T02:24:25.725Z,12.80
2022-10-17T02:26:03.857Z,12.70
2022-10-17T02:27:40.267Z,12.70
2022-10-17T02:29:16.904Z,12.80
2022-10-17T02:30:53.035Z,12.70
2022-10-17T02:32:27.114Z,12.70
2022-10-17T02:34:00.686Z,12.60
2022-10-17T02:35:36.788Z,12.60
2022-10-17T02:37:12.580Z,12.60
2022-10-17T02:38:46.340Z,12.60
2022-10-17T02:40:22.494Z,12.70
2022-10-17T02:41:57.686Z,12.60
2022-10-17T02:43:30.396Z,12.60
2022-10-17T02:45:02.968Z,12.60
2022-10-17T02:46:36.555Z,12.70
2022-10-17T02:48:11.963Z,12.70
2022-10-17T02:49:46.023Z,12.70
2022-10-17T02:51:22.521Z,12.70
2022-10-17T02:52:59.335Z,12.70
2022-10-17T02:54:35.384Z,12.70
2022-10-17T02:56:11.072Z,12.70
2022-10-17T02:57:45.993Z,12.70
2022-10-17T02:59:20.263Z,12.60
2022-10-17T03:00:53.677Z,12.60
2022-10-17T03:02:26.663Z,12.60
2022-10-17T03:04:06.337Z,12.50
2022-10-17T03:05:39.043Z,12.50
2022-10-17T03:07:11.997Z,12.40
2022-10-17T03:08:46.058Z,12.40
2022-10-17T03:10:19.091Z,12.40
2022-10-17T03:11:52.098Z,12.40
2022-10-17T03:13:24.789Z,12.40
2022-10-17T03:14:56.549Z,12.40
2022-10-17T03:16:29.322Z,12.40
2022-10-17T03:18:02.154Z,12.50
2022-10-17T03:19:34.909Z,12.50
2022-10-17T03:21:06.735Z,12.50
2022-10-17T03:22:39.562Z,12.50
2022-10-17T03:24:12.889Z,12.50
2022-10-17T03:25:46.024Z,12.50
2022-10-17T03:27:18.963Z,12.60
2022-10-17T03:28:53.713Z,12.60
2022-10-17T03:30:27.510Z,12.60
2022-10-17T03:32:00.495Z,12.60
2022-10-17T03:33:32.826Z,12.60
2022-10-17T03:35:06.059Z,12.70
2022-10-17T03:36:39.260Z,12.70
2022-10-17T03:38:12.188Z,12.70
2022-10-17T03:39:46.457Z,12.60
2022-10-17T03:41:19.267Z,12.70
2022-10-17T03:42:52.456Z,12.70
2022-10-17T03:44:25.435Z,12.70
2022-10-17T03:45:58.888Z,12.60
2022-10-17T03:47:32.177Z,12.60
2022-10-17T03:49:05.383Z,12.60
2022-10-17T03:50:38.248Z,12.60
2022-10-17T03:52:12.597Z,12.70
2022-10-17T03:53:45.640Z,12.60
2022-10-17T03:55:20.229Z,12.60
2022-10-17T03:56:53.381Z,12.60
2022-10-17T03:58:25.549Z,12.60
2022-10-17T04:00:01.849Z,12.60
2022-10-17T04:01:35.093Z,12.60
2022-10-17T04:03:08.326Z,12.50
2022-10-17T04:04:41.529Z,12.40
2022-10-17T04:06:14.678Z,12.40
2022-10-17T04:07:47.798Z,12.40
2022-10-17T04:09:20.676Z,12.30
2022-10-17T04:10:53.888Z,12.30
2022-10-17T04:12:27.524Z,12.30
2022-10-17T04:14:01.057Z,12.30
2022-10-17T04:15:34.027Z,12.30
2022-10-17T04:17:09.802Z,12.40
2022-10-17T04:18:43.325Z,12.40
2022-10-17T04:20:16.561Z,12.40
2022-10-17T04:21:49.972Z,12.30
2022-10-17T04:23:23.690Z,12.40
2022-10-17T04:24:56.612Z,12.30
2022-10-17T04:26:31.225Z,12.30
2022-10-17T04:28:04.250Z,12.30
2022-10-17T04:29:37.314Z,12.30
2022-10-17T04:31:13.137Z,12.30
2022-10-17T04:32:49.210Z,12.30
2022-10-17T04:34:22.263Z,12.30
2022-10-17T04:35:59.874Z,12.30
2022-10-17T04:37:33.135Z,12.30
2022-10-17T04:39:06.674Z,12.40
2022-10-17T04:40:39.824Z,12.30
2022-10-17T04:42:14.543Z,12.30
2022-10-17T04:43:50.978Z,12.30
2022-10-17T04:45:24.638Z,12.30
2022-10-17T04:46:59.420Z,12.30
2022-10-17T04:48:32.745Z,12.20
2022-10-17T04:50:06.713Z,12.20
2022-10-17T04:51:39.858Z,12.20
2022-10-17T04:53:13.280Z,12.20
2022-10-17T04:54:46.549Z,12.20
2022-10-17T04:56:20.364Z,12.20
2022-10-17T04:57:54.856Z,12.20
2022-10-17T04:59:27.969Z,12.20
2022-10-17T05:01:04.556Z,12.20
2022-10-17T05:02:37.491Z,12.20
2022-10-17T05:04:10.561Z,12.20
2022-10-17T05:05:43.449Z,12.20
2022-10-17T05:07:17.683Z,12.20
2022-10-17T05:08:51.215Z,12.20
2022-10-17T05:10:24.188Z,12.20
2022-10-17T05:11:57.652Z,12.20
2022-10-17T05:13:33.172Z,12.20
2022-10-17T05:15:06.829Z,12.10
2022-10-17T05:16:39.620Z,12.10
2022-10-17T05:18:12.326Z,12.20
2022-10-17T05:19:45.085Z,12.10
2022-10-17T05:21:17.859Z,12.00
2022-10-17T05:22:50.581Z,12.00
2022-10-17T05:24:23.321Z,11.90
2022-10-17T05:25:56.621Z,11.90
2022-10-17T05:27:29.315Z,11.90
2022-10-17T05:29:03.037Z,11.80
2022-10-17T05:30:37.538Z,11.80
2022-10-17T05:32:10.639Z,11.80
2022-10-17T05:33:43.419Z,11.80
2022-10-17T05:35:16.110Z,11.80
2022-10-17T05:36:48.819Z,11.70
2022-10-17T05:38:21.542Z,11.70
2022-10-17T05:39:57.392Z,11.70
2022-10-17T05:41:29.152Z,11.70
2022-10-17T05:43:02.082Z,11.70
2022-10-17T05:44:36.079Z,11.70
2022-10-17T05:46:08.787Z,11.70
2022-10-17T05:47:41.660Z,11.70
2022-10-17T05:49:19.629Z,11.70
2022-10-17T05:51:05.834Z,11.80
2022-10-17T05:52:40.564Z,11.80
2022-10-17T05:54:14.643Z,11.80
2022-10-17T05:55:48.002Z,11.80
2022-10-17T05:57:20.760Z,11.80
2022-10-17T05:58:57.394Z,11.80
2022-10-17T06:00:34.198Z,11.90
2022-10-17T06:02:06.980Z,11.90
2022-10-17T06:03:39.897Z,11.90
2022-10-17T06:05:13.073Z,11.90
2022-10-17T06:06:45.760Z,11.90
2022-10-17T06:08:18.479Z,12.00
2022-10-17T06:09:51.269Z,12.00
2022-10-17T06:11:23.965Z,12.00
2022-10-17T06:12:57.562Z,12.00
2022-10-17T06:14:30.392Z,12.00
2022-10-17T06:16:04.672Z,12.40
2022-10-17T06:17:37.622Z,12.10
2022-10-17T06:19:11.497Z,12.10
2022-10-17T06:20:46.096Z,12.10
2022-10-17T06:22:19.176Z,12.20
2022-10-17T06:23:52.312Z,12.20
2022-10-17T06:25:25.036Z,12.20
2022-10-17T06:26:57.812Z,12.20
2022-10-17T06:28:30.806Z,12.30
2022-10-17T06:30:04.048Z,12.30
2022-10-17T06:31:38.236Z,12.30
2022-10-17T06:33:10.967Z,12.40
2022-10-17T06:34:43.919Z,12.50
2022-10-17T06:36:16.812Z,12.50
2022-10-17T06:37:49.607Z,12.50
2022-10-17T06:39:23.121Z,12.60
2022-10-17T06:40:57.752Z,12.60
2022-10-17T06:42:30.552Z,12.70
2022-10-17T06:44:08.423Z,12.70
2022-10-17T06:45:41.425Z,12.80
2022-10-17T06:47:17.889Z,12.90
2022-10-17T06:48:53.124Z,12.80
2022-10-17T06:50:25.995Z,12.90
2022-10-17T06:51:58.700Z,12.90
2022-10-17T06:53:31.711Z,13.00
2022-10-17T06:55:04.575Z,13.00
2022-10-17T06:56:37.654Z,13.00
2022-10-17T06:58:10.407Z,13.00
2022-10-17T06:59:43.258Z,13.00
2022-10-17T07:01:16.147Z,13.00
2022-10-17T07:02:50.196Z,13.10
2022-10-17T07:04:22.899Z,13.10
2022-10-17T07:05:56.397Z,13.10
2022-10-17T07:07:31.636Z,13.10
2022-10-17T07:09:06.748Z,13.10
2022-10-17T07:10:39.515Z,13.10
2022-10-17T07:12:12.759Z,13.10
2022-10-17T07:13:45.803Z,13.10
2022-10-17T07:15:18.784Z,13.10
2022-10-17T07:16:51.579Z,13.20
2022-10-17T07:18:25.889Z,13.20
2022-10-17T07:19:58.685Z,13.20
2022-10-17T07:21:35.218Z,13.20
2022-10-17T07:23:10.991Z,13.30
2022-10-17T07:24:43.790Z,13.30
2022-10-17T07:26:17.855Z,13.30
2022-10-17T07:27:50.573Z,13.40
2022-10-17T07:29:23.321Z,13.40
2022-10-17T07:30:56.133Z,13.50
2022-10-17T07:32:28.884Z,13.50
2022-10-17T07:34:03.166Z,13.60
2022-10-17T07:35:35.864Z,13.70
2022-10-17T07:37:09.908Z,13.70
2022-10-17T07:38:43.036Z,13.70
2022-10-17T07:40:15.951Z,13.70
2022-10-17T07:41:50.691Z,13.80
2022-10-17T07:43:23.766Z,13.90
2022-10-17T07:44:56.775Z,13.90
2022-10-17T07:46:29.489Z,14.00
2022-10-17T07:48:02.249Z,14.00
2022-10-17T07:49:42.302Z,14.10
2022-10-17T07:51:15.217Z,14.10
2022-10-17T07:52:47.995Z,14.10
2022-10-17T07:54:20.732Z,14.30
2022-10-17T07:55:53.495Z,14.20
2022-10-17T07:57:26.279Z,14.40
2022-10-17T07:59:00.741Z,14.40
2022-10-17T08:00:36.850Z,14.40
2022-10-17T08:02:10.336Z,14.60
2022-10-17T08:03:43.161Z,14.60
2022-10-17T08:05:17.505Z,14.60
2022-10-17T08:06:53.371Z,14.80
2022-10-17T08:08:29.469Z,14.80
2022-10-17T08:10:02.398Z,14.90
2022-10-17T08:11:36.508Z,15.00
2022-10-17T08:13:09.308Z,15.00
2022-10-17T08:14:42.362Z,15.00
2022-10-17T08:16:15.121Z,15.10
2022-10-17T08:17:48.021Z,15.20
2022-10-17T08:19:20.910Z,15.30
2022-10-17T08:20:57.971Z,15.40
2022-10-17T08:22:33.253Z,15.50
2022-10-17T08:24:06.800Z,15.60
2022-10-17T08:25:39.609Z,15.60
2022-10-17T08:27:13.694Z,15.70
2022-10-17T08:28:46.831Z,15.80
2022-10-17T08:30:19.689Z,15.90
2022-10-17T08:31:56.231Z,16.00
2022-10-17T08:33:34.203Z,16.10
2022-10-17T08:35:07.727Z,16.20
2022-10-17T08:36:41.885Z,16.30
2022-10-17T08:38:15.253Z,16.50
2022-10-17T08:39:49.865Z,16.50
2022-10-17T08:41:30.672Z,16.60
2022-10-17T08:43:10.278Z,16.70
2022-10-17T08:44:49.385Z,16.90
2022-10-17T08:46:22.206Z,17.00
2022-10-17T08:47:58.755Z,17.10
2022-10-17T08:49:38.552Z,17.10
2022-10-17T08:51:14.713Z,17.20
2022-10-17T08:52:49.854Z,17.30
2022-10-17T08:54:26.129Z,17.30
2022-10-17T08:56:00.717Z,17.40
2022-10-17T08:57:33.779Z,17.40
2022-10-17T08:59:06.756Z,17.50
2022-10-17T09:00:39.814Z,17.50
2022-10-17T09:02:22.251Z,17.60
2022-10-17T09:04:02.885Z,17.70
2022-10-17T09:05:38.338Z,17.70
2022-10-17T09:07:20.169Z,17.80
2022-10-17T09:09:00.558Z,17.90
2022-10-17T09:10:38.477Z,17.80
2022-10-17T09:12:15.212Z,17.90
2022-10-17T09:13:56.747Z,18.00
2022-10-17T09:15:40.653Z,18.00
2022-10-17T09:17:19.160Z,18.10
2022-10-17T09:18:58.524Z,18.20
2022-10-17T09:20:33.417Z,18.20
2022-10-17T09:22:07.701Z,18.30
2022-10-17T09:23:44.984Z,18.30
2022-10-17T09:25:21.317Z,18.30
2022-10-17T09:26:55.040Z,18.40
2022-10-17T09:28:30.659Z,18.50
2022-10-17T09:30:26.832Z,18.60
2022-10-17T09:32:14.831Z,18.70
2022-10-17T09:33:55.642Z,18.70
2022-10-17T09:35:28.998Z,18.70
2022-10-17T09:37:02.612Z,18.80
2022-10-17T09:38:39.140Z,18.90
2022-10-17T09:40:17.485Z,19.00
2022-10-17T09:41:54.200Z,19.00
2022-10-17T09:43:27.216Z,19.10
2022-10-17T09:45:05.210Z,19.10
2022-10-17T09:46:38.925Z,19.20
2022-10-17T09:48:17.348Z,19.20
2022-10-17T09:49:50.582Z,19.30
2022-10-17T09:51:26.096Z,19.30
2022-10-17T09:53:01.754Z,19.40
2022-10-17T09:54:41.321Z,19.40
2022-10-17T09:56:16.022Z,19.50
2022-10-17T09:57:54.668Z,19.60
2022-10-17T09:59:33.837Z,19.60
2022-10-17T10:01:21.006Z,19.70
2022-10-17T10:03:17.312Z,19.80
2022-10-17T10:05:06.669Z,19.80
2022-10-17T10:06:40.262Z,19.90
2022-10-17T10:08:15.038Z,19.90
2022-10-17T10:09:48.490Z,20.00
2022-10-17T10:11:24.647Z,20.00
2022-10-17T10:13:06.649Z,20.10
2022-10-17T10:14:40.363Z,20.20
2022-10-17T10:16:17.726Z,20.30
2022-10-17T10:17:50.518Z,20.40
2022-10-17T10:19:29.192Z,20.40
2022-10-17T10:21:05.606Z,20.50
2022-10-17T10:22:38.444Z,20.50
2022-10-17T10:24:14.018Z,20.50
2022-10-17T10:25:50.839Z,20.70
2022-10-17T10:27:24.014Z,20.70
2022-10-17T10:28:59.703Z,20.80
2022-10-17T10:30:36.168Z,20.90
2022-10-17T10:32:18.122Z,21.00
2022-10-17T10:33:52.874Z,21.10
2022-10-17T10:35:32.316Z,21.20
2022-10-17T10:37:06.623Z,21.20
2022-10-17T10:38:40.998Z,21.30
2022-10-17T10:40:17.925Z,21.30
2022-10-17T10:41:50.694Z,21.50
2022-10-17T10:43:27.978Z,21.40
2022-10-17T10:45:04.011Z,21.50
2022-10-17T10:46:36.757Z,21.60
2022-10-17T10:48:19.380Z,21.60
2022-10-17T10:49:53.386Z,21.70
2022-10-17T10:51:28.750Z,21.70
2022-10-17T10:53:24.894Z,21.80
2022-10-17T10:55:01.011Z,21.90
2022-10-17T10:56:35.893Z,21.90
2022-10-17T10:58:13.823Z,22.00
2022-10-17T11:00:01.872Z,22.10
2022-10-17T11:01:40.068Z,22.10
2022-10-17T11:03:15.728Z,22.20
2022-10-17T11:04:50.811Z,22.40
2022-10-17T11:06:25.123Z,22.20
2022-10-17T11:08:01.071Z,22.20
2022-10-17T11:09:38.639Z,22.20
2022-10-17T11:11:18.173Z,22.30
2022-10-17T11:12:52.467Z,22.30
2022-10-17T11:14:29.807Z,22.40
2022-10-17T11:16:05.724Z,22.40
2022-10-17T11:17:42.643Z,22.60
2022-10-17T11:19:18.102Z,22.70
2022-10-17T11:20:55.520Z,22.80
2022-10-17T11:22:29.591Z,22.80
2022-10-17T11:24:06.874Z,22.80
2022-10-17T11:25:42.042Z,22.90
2022-10-17T11:27:14.739Z,23.00
2022-10-17T11:28:47.518Z,23.00
2022-10-17T11:30:20.271Z,23.00
2022-10-17T11:31:54.797Z,23.10
2022-10-17T11:33:31.831Z,23.10
2022-10-17T11:35:06.218Z,23.20
2022-10-17T11:36:40.613Z,23.20
2022-10-17T11:38:17.671Z,23.30
2022-10-17T11:39:53.688Z,23.30
2022-10-17T11:41:31.026Z,23.30
2022-10-17T11:43:11.367Z,23.30
2022-10-17T11:44:44.607Z,23.20
2022-10-17T11:46:19.922Z,23.20
2022-10-17T11:47:54.163Z,23.20
2022-10-17T11:49:32.960Z,23.20
2022-10-17T11:53:04.546Z,23.20
2022-10-17T11:54:40.378Z,23.20
2022-10-17T11:56:13.767Z,23.20
2022-10-17T11:57:52.459Z,23.20
2022-10-17T11:59:40.842Z,23.20
2022-10-17T12:01:16.653Z,23.30
2022-10-17T12:02:51.714Z,23.30
2022-10-17T12:04:31.078Z,23.30
2022-10-17T12:06:11.125Z,23.30
2022-10-17T12:07:46.627Z,23.30
2022-10-17T12:09:22.538Z,23.30
2022-10-17T12:10:57.481Z,23.30
2022-10-17T12:12:31.773Z,23.20
2022-10-17T12:14:26.518Z,23.20
2022-10-17T12:16:19.408Z,23.10
2022-10-17T12:17:56.373Z,23.10
2022-10-17T12:19:30.991Z,23.10
2022-10-17T12:21:03.839Z,23.00
2022-10-17T12:22:47.163Z,23.00
2022-10-17T12:24:27.078Z,22.90
2022-10-17T12:26:03.209Z,23.00
2022-10-17T12:27:38.518Z,22.90
2022-10-17T12:29:24.604Z,22.90
2022-10-17T12:30:58.687Z,23.00
2022-10-17T12:32:46.934Z,23.10
2022-10-17T12:34:25.486Z,23.10
2022-10-17T12:36:17.082Z,23.20
2022-10-17T12:38:04.606Z,23.20
2022-10-17T12:39:46.109Z,23.20
2022-10-17T12:41:38.942Z,23.30
2022-10-17T12:43:26.654Z,23.30
2022-10-17T12:44:59.409Z,23.30
2022-10-17T12:46:45.774Z,23.40
2022-10-17T12:48:36.994Z,23.10
2022-10-17T12:50:39.833Z,23.50
2022-10-17T12:52:23.317Z,23.50
2022-10-17T12:53:58.850Z,23.50
2022-10-17T12:55:31.565Z,23.50
2022-10-17T12:57:14.544Z,23.50
2022-10-17T12:58:48.788Z,23.50
2022-10-17T13:00:23.517Z,23.50
2022-10-17T13:01:57.360Z,23.50
2022-10-17T13:03:32.722Z,23.50
2022-10-17T13:05:07.839Z,23.60
2022-10-17T13:06:45.268Z,23.50
2022-10-17T13:08:20.870Z,23.50
2022-10-17T13:09:54.961Z,23.50
2022-10-17T13:11:29.799Z,23.50
2022-10-17T13:13:06.579Z,23.50
2022-10-17T13:14:41.232Z,23.40
2022-10-17T13:16:28.501Z,23.30
2022-10-17T13:18:02.270Z,23.20
2022-10-17T13:19:41.267Z,23.10
2022-10-17T13:21:16.123Z,23.10
2022-10-17T13:22:48.835Z,23.10
2022-10-17T13:24:22.248Z,23.20
2022-10-17T13:26:06.795Z,23.10
2022-10-17T13:27:39.520Z,23.10
2022-10-17T13:29:13.356Z,23.00
2022-10-17T13:30:49.353Z,23.10
2022-10-17T13:32:22.434Z,23.10
2022-10-17T13:33:56.977Z,23.10
2022-10-17T13:35:55.487Z,23.10
2022-10-17T13:37:23.812Z,23.20
2022-10-17T13:38:57.015Z,23.20
2022-10-17T13:40:44.414Z,23.20
2022-10-17T13:42:23.906Z,23.20
2022-10-17T13:43:58.928Z,23.20
2022-10-17T13:45:33.308Z,23.20
2022-10-17T13:47:06.030Z,23.20
2022-10-17T13:48:39.011Z,23.20
2022-10-17T13:50:39.511Z,23.20
2022-10-17T13:52:17.315Z,23.20
2022-10-17T13:53:50.084Z,23.20
2022-10-17T13:55:23.587Z,23.20
2022-10-17T13:56:56.695Z,23.20
2022-10-17T13:58:35.032Z,23.20
2022-10-17T14:00:11.591Z,23.20
2022-10-17T14:01:45.327Z,23.20
2022-10-17T14:03:18.047Z,23.20
2022-10-17T14:05:18.335Z,23.20
2022-10-17T14:06:52.607Z,23.20
2022-10-17T14:08:25.790Z,23.20
2022-10-17T14:09:58.660Z,23.20
2022-10-17T14:11:34.065Z,23.20
2022-10-17T14:13:08.191Z,23.20
2022-10-17T14:15:13.007Z,23.20
2022-10-17T14:16:41.497Z,23.20
2022-10-17T14:18:18.631Z,23.20
2022-10-17T14:20:05.915Z,23.20
2022-10-17T14:21:49.306Z,23.20
2022-10-17T14:23:33.072Z,23.20
2022-10-17T14:25:06.251Z,23.20
2022-10-17T14:26:47.533Z,23.20
2022-10-17T14:28:23.425Z,23.20
2022-10-17T14:30:00.660Z,23.20
2022-10-17T14:31:33.868Z,23.20
2022-10-17T14:33:08.046Z,23.10
2022-10-17T14:34:41.747Z,23.10
2022-10-17T14:36:15.024Z,23.10
2022-10-17T14:37:49.199Z,23.10
2022-10-17T14:39:24.220Z,23.00
2022-10-17T14:41:15.405Z,23.10
2022-10-17T14:42:52.920Z,23.10
2022-10-17T14:44:28.972Z,23.00
2022-10-17T14:46:03.754Z,23.00
2022-10-17T14:47:43.662Z,22.90
2022-10-17T14:49:23.393Z,22.90
2022-10-17T14:51:06.877Z,22.90
2022-10-17T14:52:40.754Z,22.80
2022-10-17T14:54:20.994Z,22.70
2022-10-17T14:55:57.843Z,22.70
2022-10-17T14:57:41.716Z,22.70
2022-10-17T14:59:30.087Z,22.60
2022-10-17T15:01:11.537Z,22.60
2022-10-17T15:02:44.819Z,22.50
2022-10-17T15:04:18.018Z,22.50
2022-10-17T15:05:51.561Z,22.50
2022-10-17T15:07:24.575Z,22.50
2022-10-17T15:08:57.563Z,22.50
2022-10-17T15:10:33.835Z,22.50
2022-10-17T15:12:08.517Z,22.50
2022-10-17T15:13:45.623Z,22.50
2022-10-17T15:15:18.905Z,22.40
2022-10-17T15:16:52.983Z,22.40
2022-10-17T15:18:25.722Z,22.40
2022-10-17T15:19:58.864Z,22.30
2022-10-17T15:21:39.633Z,22.20
2022-10-17T15:23:14.755Z,22.20
2022-10-17T15:24:47.535Z,22.20
2022-10-17T15:26:21.438Z,22.20
2022-10-17T15:27:54.389Z,22.10
2022-10-17T15:29:27.125Z,22.10
2022-10-17T15:30:59.907Z,22.00
2022-10-17T15:32:33.969Z,22.00
2022-10-17T15:34:06.750Z,22.00
2022-10-17T15:35:39.490Z,22.00
2022-10-17T15:37:17.347Z,22.00
2022-10-17T15:38:50.122Z,21.90
2022-10-17T15:40:24.047Z,21.80
2022-10-17T15:41:56.771Z,21.80
2022-10-17T15:43:29.758Z,21.80
2022-10-17T15:45:02.789Z,21.70
2022-10-17T15:46:36.535Z,21.60
2022-10-17T15:48:16.835Z,21.50
2022-10-17T15:49:49.586Z,21.50
2022-10-17T15:51:23.031Z,21.40
2022-10-17T15:52:55.751Z,21.30
2022-10-17T15:54:28.457Z,21.20
2022-10-17T15:56:01.335Z,21.20
2022-10-17T15:57:35.751Z,21.10
2022-10-17T15:59:12.064Z,21.10
2022-10-17T16:00:45.563Z,21.00
2022-10-17T16:02:19.384Z,20.90
2022-10-17T16:03:54.020Z,20.80
2022-10-17T16:05:27.043Z,20.70
2022-10-17T16:06:59.808Z,20.60
2022-10-17T16:08:32.578Z,20.60
2022-10-17T16:10:05.830Z,20.50
2022-10-17T16:11:39.209Z,20.50
2022-10-17T16:13:14.696Z,20.40
2022-10-17T16:14:47.489Z,20.30
2022-10-17T16:16:22.086Z,20.30
2022-10-17T16:17:55.610Z,20.20
2022-10-17T16:19:30.156Z,20.10
2022-10-17T16:21:02.930Z,20.00
2022-10-17T16:22:36.748Z,20.00
2022-10-17T16:24:11.188Z,19.90
2022-10-17T16:25:43.925Z,19.80
2022-10-17T16:27:16.705Z,19.70
2022-10-17T16:28:49.546Z,19.70
2022-10-17T16:30:23.388Z,19.60
2022-10-17T16:31:56.133Z,19.60
2022-10-17T16:33:28.953Z,19.50
2022-10-17T16:35:03.139Z,19.50
2022-10-17T16:36:36.109Z,19.40
2022-10-17T16:38:09.135Z,19.40
2022-10-17T16:39:41.949Z,19.30
2022-10-17T16:41:21.623Z,19.30
2022-10-17T16:42:54.391Z,19.30
2022-10-17T16:44:27.198Z,19.20
2022-10-17T16:46:00.050Z,19.10
2022-10-17T16:47:32.891Z,19.10
2022-10-17T16:49:05.938Z,19.10
2022-10-17T16:50:41.431Z,19.00
2022-10-17T16:52:14.171Z,19.00
2022-10-17T16:53:47.208Z,18.90
2022-10-17T16:55:20.486Z,18.90
2022-10-17T16:56:53.362Z,18.80
2022-10-17T16:58:27.439Z,18.80
2022-10-17T17:00:00.490Z,18.70
2022-10-17T17:01:33.255Z,18.70
2022-10-17T17:03:06.782Z,18.60
2022-10-17T17:04:39.554Z,18.60
2022-10-17T17:06:15.215Z,18.60
2022-10-17T17:07:48.434Z,18.60
2022-10-17T17:09:21.407Z,18.60
2022-10-17T17:10:55.384Z,18.50
2022-10-17T17:12:28.120Z,18.50
2022-10-17T17:14:04.765Z,18.50
2022-10-17T17:15:38.393Z,18.40
2022-10-17T17:17:19.465Z,18.40
2022-10-17T17:19:08.888Z,18.40
2022-10-17T17:20:42.196Z,18.30
2022-10-17T17:22:16.320Z,18.30
2022-10-17T17:23:49.179Z,18.20
2022-10-17T17:25:22.499Z,18.20
2022-10-17T17:26:55.932Z,18.20
2022-10-17T17:28:29.340Z,18.20
2022-10-17T17:30:02.182Z,18.20
2022-10-17T17:31:35.965Z,18.10
2022-10-17T17:33:08.783Z,18.00
2022-10-17T17:34:41.566Z,18.00
2022-10-17T17:36:17.144Z,17.90
2022-10-17T17:37:51.555Z,17.90
2022-10-17T17:39:24.351Z,17.80
2022-10-17T17:40:57.189Z,17.80
2022-10-17T17:42:30.064Z,17.80
2022-10-17T17:44:03.748Z,17.70
2022-10-17T17:45:36.484Z,17.70
2022-10-17T17:47:09.353Z,17.60
2022-10-17T17:48:42.659Z,17.60
2022-10-17T17:50:15.655Z,17.50
2022-10-17T17:51:48.412Z,17.50
2022-10-17T17:53:22.671Z,17.40
2022-10-17T17:54:55.438Z,17.40
2022-10-17T17:56:29.062Z,17.30
2022-10-17T17:58:02.145Z,17.30
2022-10-17T17:59:34.971Z,17.20
2022-10-17T18:01:12.248Z,17.20
2022-10-17T18:02:47.657Z,17.10
2022-10-17T18:04:20.492Z,17.10
2022-10-17T18:05:53.659Z,17.10
2022-10-17T18:07:26.637Z,17.10
2022-10-17T18:09:01.485Z,17.10
2022-10-17T18:10:34.381Z,17.00
2022-10-17T18:12:07.281Z,17.00
2022-10-17T18:13:40.318Z,17.00
2022-10-17T18:15:13.431Z,17.00
2022-10-17T18:16:46.342Z,17.00
2022-10-17T18:18:19.807Z,16.90
2022-10-17T18:19:52.671Z,16.90
2022-10-17T18:21:25.436Z,16.90
2022-10-17T18:23:00.627Z,16.80
2022-10-17T18:24:37.673Z,16.80
2022-10-17T18:26:10.563Z,16.80
2022-10-17T18:27:43.316Z,16.80
2022-10-17T18:29:16.133Z,16.70
2022-10-17T18:30:48.995Z,16.70
2022-10-17T18:32:21.833Z,16.70
2022-10-17T18:33:55.119Z,16.70
2022-10-17T18:35:28.264Z,16.60
2022-10-17T18:37:02.573Z,16.60
2022-10-17T18:38:35.710Z,16.50
2022-10-17T18:40:10.580Z,16.50
2022-10-17T18:41:42.904Z,16.50
2022-10-17T18:43:15.879Z,16.50
2022-10-17T18:44:48.730Z,16.40
2022-10-17T18:46:22.280Z,16.40
2022-10-17T18:47:55.041Z,16.30
2022-10-17T18:49:27.895Z,16.30
2022-10-17T18:51:00.872Z,16.30
2022-10-17T18:52:33.659Z,16.30
2022-10-17T18:54:08.379Z,16.30
2022-10-17T18:55:43.318Z,16.30
2022-10-17T18:57:16.260Z,16.30
2022-10-17T18:58:49.095Z,16.30
2022-10-17T19:00:22.112Z,16.30
2022-10-17T19:01:55.067Z,16.30
2022-10-17T19:03:28.240Z,16.30
2022-10-17T19:05:01.115Z,16.40
2022-10-17T19:06:34.106Z,16.30
2022-10-17T19:08:06.915Z,16.30
2022-10-17T19:09:39.743Z,16.30
2022-10-17T19:11:14.715Z,16.30
2022-10-17T19:12:47.508Z,16.30
2022-10-17T19:14:20.320Z,16.30
2022-10-17T19:15:53.153Z,16.20
2022-10-17T19:17:25.977Z,16.20
2022-10-17T19:19:00.037Z,16.20
2022-10-17T19:20:32.880Z,16.10
2022-10-17T19:22:05.742Z,16.10
2022-10-17T19:23:38.194Z,16.00
2022-10-17T19:25:11.035Z,16.00
2022-10-17T19:26:45.883Z,16.00
2022-10-17T19:28:18.858Z,16.00
2022-10-17T19:29:51.567Z,16.00
2022-10-17T19:31:27.057Z,15.90
2022-10-17T19:33:02.678Z,15.90
2022-10-17T19:34:35.847Z,15.90
2022-10-17T19:36:09.830Z,15.80
2022-10-17T19:37:42.622Z,15.80
2022-10-17T19:39:16.254Z,15.80
2022-10-17T19:40:49.089Z,15.80
2022-10-17T19:42:23.280Z,15.70
2022-10-17T19:43:56.019Z,15.70
2022-10-17T19:45:28.763Z,15.70
2022-10-17T19:47:01.587Z,15.70
2022-10-17T19:48:34.820Z,15.70
2022-10-17T19:50:08.217Z,15.60
2022-10-17T19:51:41.332Z,15.60
2022-10-17T19:53:14.060Z,15.50
2022-10-17T19:54:46.797Z,15.50
2022-10-17T19:56:20.080Z,15.40
2022-10-17T19:57:54.274Z,15.40
2022-10-17T19:59:27.036Z,15.30
2022-10-17T20:01:01.033Z,15.30
2022-10-17T20:02:33.782Z,15.30
2022-10-17T20:04:07.201Z,15.20
2022-10-17T20:05:39.157Z,15.20
2022-10-17T20:07:11.967Z,15.20
2022-10-17T20:08:44.165Z,15.20
2022-10-17T20:10:18.388Z,15.20
2022-10-17T20:11:51.143Z,15.20
2022-10-17T20:13:25.249Z,15.20
2022-10-17T20:14:58.024Z,15.20
2022-10-17T20:16:31.937Z,15.10
2022-10-17T20:18:05.214Z,15.20
2022-10-17T20:19:38.004Z,15.20
2022-10-17T20:21:11.867Z,15.10
2022-10-17T20:22:44.718Z,15.10
2022-10-17T20:24:39.727Z,15.10
2022-10-17T20:26:25.915Z,15.10
2022-10-17T20:28:08.010Z,15.10
2022-10-17T20:29:44.197Z,15.10